Kiruna Geofysiska, Sweden

8:12 AM CEST on July 29, 2014 (GMT +0200)
Kiruna (ESNQ) Elev 1483 ft | 67.82 °N, 20.34 °E | Change Station

Current weather conditions updated 22 minutes ago

Light Rain
Light Rain
52 °F
Feels Like 52 °F
N
9
Wind Variable Wind from NNE

Today is forecast to be Much Cooler than yesterday. A few morning showers.

Today
High -- | Low -- °F
--% Chance of Precip.
Yesterday
High -- | Low -- °F
Precip. -- in
2:39 AM 10:45 PM
Waxing Crescent, 5% visible
Pressure 29.86 in
Visibility 6.2 miles
Clouds Scattered Clouds 600 ft
Mostly Cloudy 800 ft
Mostly Cloudy 1100 ft
Dew Point 50 °F
Humidity 94%
Rainfall 0.00 in
Snow Depth Not available.
UV 1 out of 12
Pollen Not available.
Air Quality Not available.
Flu Activity Not available.
METAR ESNQ 290550Z AUTO 02008KT 9999 -RA SCT006/// BKN008/// BKN011/// 11/10 Q1011

More Conditions Fewer Conditions

Pressure 29.86 in
Visibility 6.2 miles
Clouds Scattered Clouds 600 ft
Mostly Cloudy 800 ft
Mostly Cloudy 1100 ft
Dew Point 50 °F
Humidity 94%
Rainfall 0.00 in
Snow Depth Not available.
UV 1 out of 12
Pollen Not available.
Air Quality Not available.
Flu Activity Not available.
METAR ESNQ 290550Z AUTO 02008KT 9999 -RA SCT006/// BKN008/// BKN011/// 11/10 Q1011

More Conditions Fewer Conditions

10-Day Weather Forecast

Almanac

Astronomy

Jul. 29, 2014 Rise Set
Actual Time 2:39 AM CEST 10:45 PM CEST
Civil Twilight Sun does not rise Sun does not rise
Nautical Twilight Sun does not rise Sun does not rise
Astronomical Twilight Sun does not rise Sun does not rise
Moon 7:01 AM CEST 9:34 PM CEST
Length of Visible Light 24h 00m
Length of Day
20h 05m
Tomorrow will be 10m 32s shorter.
Waxing Crescent, 5% of the Moon is Illuminated
Today
Waxing Crescent
Aug 3
First Quarter
Aug 10
Full
Aug 17
Last Quarter
Aug 25
New

Yesterday's Extremes

Country Highs Country Lows

Community

WunderPhotos

Upload Photos

1,738,642 photos uploaded!

Nearby

Snow Depth

Not available.

Earthquake Activity

City Distance Mag. Time & Date
No recent earthquake activity has been reported nearby.
Minimum magnitude displayed is 2.5.

Coastal Water Temperatures

Place Temperature
No Stations Reporting

Nearby Weather Stations

There are no personal weather stations in this area.